Time;durP1;ratioP1;P1;durP2;ratioP2;P2;SDS_P1;SDS_P2;PMS_P1;PMS_P2;Temp;Humidity;BMP_temperature;BMP_pressure;BME280_temperature;BME280_humidity;BME280_pressure;Samples;Min_cycle;Max_cycle;Signal;HPM_P1;HPM_P2
2022/06/30 00:01:44;;;;;;;;;;;;;;;;;;10499430;28;19924;-65
2022/06/30 00:06:46;;;;;;;;;;;;;;;;;;10480206;28;19967;-65
2022/06/30 00:11:48;;;;;;;;;;;;;;;;;;10457778;28;19925;-65
2022/06/30 00:16:51;;;;;;;;;;;;;;;;;;10457544;28;19932;-65
2022/06/30 00:21:53;;;;;;;;;;;;;;;;;;10498880;28;19979;-65
2022/06/30 00:26:55;;;;;;;;;;;;;;;;;;10497913;28;19950;-65
2022/06/30 00:31:57;;;;;;;;;;;;;;;;;;10497903;28;19932;-65
2022/06/30 00:37:00;;;;;;;;;;;;;;;;;;10460790;28;19925;-65
2022/06/30 00:42:02;;;;;;;;;;;;;;;;;;10457120;28;19925;-64
2022/06/30 00:47:05;;;;;;;;;;;;;;;;;;10456316;28;20384;-65
2022/06/30 00:52:07;;;;;;;;;;;;;;;;;;10456760;28;19925;-65
2022/06/30 00:57:10;;;;;;;;;;;;;;;;;;10457121;28;19936;-65
2022/06/30 01:02:13;;;;;;;;;;;;;;;;;;10493896;28;19925;-65
2022/06/30 01:07:15;;;;;;;;;;;;;;;;;;10505879;28;19991;-65
2022/06/30 01:17:37;;;;;;;;;;;;;;;;;;10504833;28;19928;-65
2022/06/30 01:22:39;;;;;;;;;;;;;;;;;;10504955;28;19928;-65
2022/06/30 01:27:41;;;;;;;;;;;;;;;;;;10497410;28;19925;-65
2022/06/30 01:32:44;;;;;;;;;;;;;;;;;;10421778;28;19925;-64
2022/06/30 01:37:46;;;;;;;;;;;;;;;;;;10422310;28;19926;-64
2022/06/30 01:42:48;;;;;;;;;;;;;;;;;;10437699;22;19931;-63
2022/06/30 01:47:50;;;;;;;;;;;;;;;;;;10463299;28;19925;-63
2022/06/30 01:52:52;;;;;;;;;;;;;;;;;;10463065;28;19931;-63
2022/06/30 01:57:54;;;;;;;;;;;;;;;;;;10463273;28;19925;-63
2022/06/30 02:02:57;;;;;;;;;;;;;;;;;;10462065;28;19924;-63
2022/06/30 02:07:59;;;;;;;;;;;;;;;;;;10502309;28;20386;-63
2022/06/30 02:13:01;;;;;;;;;;;;;;;;;;10503730;28;19929;-63
2022/06/30 02:18:03;;;;;;;;;;;;;;;;;;10503186;28;19932;-63
2022/06/30 02:23:05;;;;;;;;;;;;;;;;;;10482570;28;19924;-63
2022/06/30 02:28:07;;;;;;;;;;;;;;;;;;10461556;28;19948;-63
2022/06/30 02:33:09;;;;;;;;;;;;;;;;;;10460855;28;19925;-63
2022/06/30 02:38:11;;;;;;;;;;;;;;;;;;10461243;28;19928;-63
2022/06/30 02:43:13;;;;;;;;;;;;;;;;;;10460271;28;20418;-63
2022/06/30 02:48:16;;;;;;;;;;;;;;;;;;10460931;28;19932;-63
2022/06/30 02:53:18;;;;;;;;;;;;;;;;;;10463761;28;19925;-63
2022/06/30 02:58:20;;;;;;;;;;;;;;;;;;10501815;28;19924;-63
2022/06/30 03:03:22;;;;;;;;;;;;;;;;;;10500711;28;20295;-63
2022/06/30 03:08:25;;;;;;;;;;;;;;;;;;10501396;28;19924;-63
2022/06/30 03:13:27;;;;;;;;;;;;;;;;;;10501251;28;19924;-63
2022/06/30 03:18:29;;;;;;;;;;;;;;;;;;10487939;28;20273;-63
2022/06/30 03:23:31;;;;;;;;;;;;;;;;;;10458728;28;19929;-63
2022/06/30 03:28:33;;;;;;;;;;;;;;;;;;10459324;28;19925;-63
2022/06/30 03:33:37;;;;;;;;;;;;;;;;;;10458477;28;19924;-63
2022/06/30 03:38:39;;;;;;;;;;;;;;;;;;10473634;28;20310;-63
2022/06/30 03:43:41;;;;;;;;;;;;;;;;;;10499407;28;19928;-63
2022/06/30 03:48:43;;;;;;;;;;;;;;;;;;10469305;28;19925;-63
2022/06/30 03:53:45;;;;;;;;;;;;;;;;;;10458329;28;19931;-63
2022/06/30 03:58:47;;;;;;;;;;;;;;;;;;10458191;28;19932;-63
2022/06/30 04:03:49;;;;;;;;;;;;;;;;;;10458477;28;19931;-63
2022/06/30 04:08:51;;;;;;;;;;;;;;;;;;10457871;28;20011;-63
2022/06/30 04:13:53;;;;;;;;;;;;;;;;;;10467951;28;20283;-63
2022/06/30 04:18:55;;;;;;;;;;;;;;;;;;10498307;28;19924;-63
2022/06/30 04:23:58;;;;;;;;;;;;;;;;;;10498010;28;20284;-63
2022/06/30 04:29:00;;;;;;;;;;;;;;;;;;10498827;28;19924;-63
2022/06/30 04:34:02;;;;;;;;;;;;;;;;;;10498458;28;20375;-63
2022/06/30 04:39:04;;;;;;;;;;;;;;;;;;10480474;28;19924;-63
2022/06/30 04:44:06;;;;;;;;;;;;;;;;;;10457632;28;19931;-63
2022/06/30 04:49:08;;;;;;;;;;;;;;;;;;10456321;28;20376;-63
2022/06/30 04:54:10;;;;;;;;;;;;;;;;;;10456835;28;19950;-63
2022/06/30 04:59:12;;;;;;;;;;;;;;;;;;10456641;28;19960;-63
2022/06/30 05:04:14;;;;;;;;;;;;;;;;;;10456674;28;19929;-63
2022/06/30 05:09:16;;;;;;;;;;;;;;;;;;10468987;28;19936;-63
2022/06/30 05:14:19;;;;;;;;;;;;;;;;;;10497283;28;20405;-63
2022/06/30 05:19:21;;;;;;;;;;;;;;;;;;10497411;28;19928;-63
2022/06/30 05:29:44;;;;;;;;;;;;;;;;;;10497646;28;19925;-63
2022/06/30 05:34:46;;;;;;;;;;;;;;;;;;10486936;28;19925;-63
2022/06/30 05:39:48;;;;;;;;;;;;;;;;;;10455904;28;19925;-63
2022/06/30 05:44:50;;;;;;;;;;;;;;;;;;10458508;28;19931;-63
2022/06/30 05:49:52;;;;;;;;;;;;;;;;;;10463282;28;19925;-63
2022/06/30 05:54:56;;;;;;;;;;;;;;;;;;10464157;28;19931;-63
2022/06/30 05:59:58;;;;;;;;;;;;;;;;;;10462123;28;19931;-63
2022/06/30 06:05:00;;;;;;;;;;;;;;;;;;10462040;28;19925;-63
2022/06/30 06:10:02;;;;;;;;;;;;;;;;;;10462495;28;19925;-63
2022/06/30 06:15:10;;;;;;;;;;;;;;;;;;10462854;28;19925;-63
2022/06/30 06:20:12;;;;;;;;;;;;;;;;;;10461615;28;20301;-63
2022/06/30 06:25:15;;;;;;;;;;;;;;;;;;10494301;28;19924;-63
2022/06/30 06:30:17;;;;;;;;;;;;;;;;;;10502512;28;19931;-63
2022/06/30 06:35:19;;;;;;;;;;;;;;;;;;10502984;28;19924;-63
2022/06/30 06:40:21;;;;;;;;;;;;;;;;;;10500271;28;19928;-63
2022/06/30 06:45:23;;;;;;;;;;;;;;;;;;10502391;28;19925;-63
2022/06/30 06:50:25;;;;;;;;;;;;;;;;;;10499953;28;20365;-63
2022/06/30 06:55:27;;;;;;;;;;;;;;;;;;10498470;28;19944;-63
2022/06/30 07:00:30;;;;;;;;;;;;;;;;;;10483114;28;20421;-63
2022/06/30 07:05:32;;;;;;;;;;;;;;;;;;10488738;28;19932;-63
2022/06/30 07:10:34;;;;;;;;;;;;;;;;;;10459464;28;20287;-64
2022/06/30 07:15:39;;;;;;;;;;;;;;;;;;10458895;28;20402;-65
2022/06/30 07:20:41;;;;;;;;;;;;;;;;;;10458156;28;19929;-64
2022/06/30 07:25:43;;;;;;;;;;;;;;;;;;10440436;28;19924;-64
2022/06/30 07:30:45;;;;;;;;;;;;;;;;;;10475622;28;19925;-64
2022/06/30 07:35:47;;;;;;;;;;;;;;;;;;10474608;28;20015;-64
2022/06/30 07:40:50;;;;;;;;;;;;;;;;;;10462260;28;20298;-64
2022/06/30 07:45:52;;;;;;;;;;;;;;;;;;10440882;28;19935;-65
2022/06/30 07:50:55;;;;;;;;;;;;;;;;;;10458601;28;20009;-64
2022/06/30 07:55:57;;;;;;;;;;;;;;;;;;10458473;28;19925;-65
2022/06/30 08:00:59;;;;;;;;;;;;;;;;;;10457505;28;19925;-64
2022/06/30 08:06:01;;;;;;;;;;;;;;;;;;10457759;28;19935;-64
2022/06/30 08:11:03;;;;;;;;;;;;;;;;;;10457888;28;19925;-65
2022/06/30 08:16:07;;;;;;;;;;;;;;;;;;10457746;28;20007;-65
2022/06/30 08:21:09;;;;;;;;;;;;;;;;;;10457620;28;19931;-65
2022/06/30 08:26:11;;;;;;;;;;;;;;;;;;10458344;28;20004;-65
2022/06/30 08:31:15;;;;;;;;;;;;;;;;;;10456714;28;19975;-64
2022/06/30 08:36:17;;;;;;;;;;;;;;;;;;10457307;28;19925;-65
2022/06/30 08:46:40;;;;;;;;;;;;;;;;;;10456316;28;19925;-65
2022/06/30 08:51:42;;;;;;;;;;;;;;;;;;10456777;28;19936;-64
2022/06/30 08:56:44;;;;;;;;;;;;;;;;;;10456242;28;20326;-64
2022/06/30 09:01:46;;;;;;;;;;;;;;;;;;10456049;28;19932;-65
2022/06/30 09:06:48;;;;;;;;;;;;;;;;;;10456721;28;19925;-65
2022/06/30 09:11:51;;;;;;;;;;;;;;;;;;10456657;28;19974;-65
2022/06/30 09:16:53;;;;;;;;;;;;;;;;;;10456492;28;19931;-65
2022/06/30 09:21:55;;;;;;;;;;;;;;;;;;10462269;28;20379;-65
2022/06/30 09:26:57;;;;;;;;;;;;;;;;;;10464297;28;19925;-65
2022/06/30 09:31:59;;;;;;;;;;;;;;;;;;10464097;28;19925;-65
2022/06/30 09:37:03;;;;;;;;;;;;;;;;;;10463841;28;19928;-65
2022/06/30 09:42:05;;;;;;;;;;;;;;;;;;10463443;28;19933;-65
2022/06/30 09:47:07;;;;;;;;;;;;;;;;;;10463463;28;19931;-65
2022/06/30 09:52:09;;;;;;;;;;;;;;;;;;10463186;28;19970;-65
2022/06/30 09:57:11;;;;;;;;;;;;;;;;;;10462993;28;20031;-65
2022/06/30 10:02:13;;;;;;;;;;;;;;;;;;10462600;28;19933;-65
2022/06/30 10:07:15;;;;;;;;;;;;;;;;;;10444947;28;19932;-65
2022/06/30 10:12:17;;;;;;;;;;;;;;;;;;10462423;28;19925;-64
2022/06/30 10:17:19;;;;;;;;;;;;;;;;;;10461618;28;20295;-65
2022/06/30 10:22:22;;;;;;;;;;;;;;;;;;10461531;28;19929;-64
2022/06/30 10:27:24;;;;;;;;;;;;;;;;;;10461322;28;20330;-65
2022/06/30 10:32:26;;;;;;;;;;;;;;;;;;10460910;28;19925;-65
2022/06/30 10:37:28;;;;;;;;;;;;;;;;;;10500870;28;19925;-65
2022/06/30 10:42:31;;;;;;;;;;;;;;;;;;10501569;28;19924;-65
2022/06/30 10:47:33;;;;;;;;;;;;;;;;;;10502000;28;19925;-65
2022/06/30 10:52:35;;;;;;;;;;;;;;;;;;10501660;28;19967;-64
2022/06/30 10:57:37;;;;;;;;;;;;;;;;;;10501984;28;19925;-64
2022/06/30 11:02:39;;;;;;;;;;;;;;;;;;10501832;28;19931;-64
2022/06/30 11:07:41;;;;;;;;;;;;;;;;;;10501083;28;20279;-64
2022/06/30 11:12:43;;;;;;;;;;;;;;;;;;10483173;28;19924;-65
2022/06/30 11:17:45;;;;;;;;;;;;;;;;;;10501184;28;19932;-64
2022/06/30 11:22:52;;;;;;;;;;;;;;;;;;10495275;28;19978;-64
2022/06/30 11:27:54;;;;;;;;;;;;;;;;;;10499867;28;19971;-65
2022/06/30 11:32:56;;;;;;;;;;;;;;;;;;10500372;28;20372;-64
2022/06/30 11:37:58;;;;;;;;;;;;;;;;;;10498527;28;19924;-65
2022/06/30 11:43:00;;;;;;;;;;;;;;;;;;10498910;28;19924;-65
2022/06/30 11:48:05;;;;;;;;;;;;;;;;;;10499081;28;20383;-65
2022/06/30 11:53:07;;;;;;;;;;;;;;;;;;10499749;28;19924;-65
2022/06/30 11:58:10;;;;;;;;;;;;;;;;;;10489192;28;19924;-65
2022/06/30 12:03:12;;;;;;;;;;;;;;;;;;10458165;28;19933;-65
2022/06/30 12:08:14;;;;;;;;;;;;;;;;;;10457976;28;19928;-65
2022/06/30 12:13:16;;;;;;;;;;;;;;;;;;10457815;28;19925;-65
2022/06/30 12:18:18;;;;;;;;;;;;;;;;;;10457465;28;19932;-65
2022/06/30 12:23:20;;;;;;;;;;;;;;;;;;10459078;28;20265;-65
2022/06/30 12:28:22;;;;;;;;;;;;;;;;;;10457492;28;19929;-65
2022/06/30 12:33:26;;;;;;;;;;;;;;;;;;10458472;28;19931;-65
2022/06/30 12:38:28;;;;;;;;;;;;;;;;;;10457205;28;19932;-64
2022/06/30 12:43:30;;;;;;;;;;;;;;;;;;10484696;28;19924;-65
2022/06/30 12:48:32;;;;;;;;;;;;;;;;;;10495982;28;19929;-65
2022/06/30 12:53:34;;;;;;;;;;;;;;;;;;10499637;28;19925;-65
2022/06/30 12:58:36;;;;;;;;;;;;;;;;;;10506774;28;19924;-65
2022/06/30 13:03:38;;;;;;;;;;;;;;;;;;10504346;28;20299;-65
2022/06/30 13:08:43;;;;;;;;;;;;;;;;;;10506405;28;19929;-65
2022/06/30 13:13:45;;;;;;;;;;;;;;;;;;10506215;28;19924;-65
2022/06/30 13:18:48;;;;;;;;;;;;;;;;;;10470682;28;19931;-65
2022/06/30 13:23:50;;;;;;;;;;;;;;;;;;10463818;28;19925;-65
2022/06/30 13:28:53;;;;;;;;;;;;;;;;;;10464250;28;19929;-65
2022/06/30 13:33:56;;;;;;;;;;;;;;;;;;10465137;28;19931;-65
2022/06/30 13:38:58;;;;;;;;;;;;;;;;;;10464340;28;20330;-65
2022/06/30 13:44:01;;;;;;;;;;;;;;;;;;10462897;28;19925;-65
2022/06/30 13:49:03;;;;;;;;;;;;;;;;;;10464308;28;19936;-65
2022/06/30 13:54:05;;;;;;;;;;;;;;;;;;10463328;28;19939;-65
2022/06/30 13:59:07;;;;;;;;;;;;;;;;;;10452424;22;19932;-65
2022/06/30 14:04:09;;;;;;;;;;;;;;;;;;10420785;28;19925;-65
2022/06/30 14:09:11;;;;;;;;;;;;;;;;;;10421332;28;19931;-65
2022/06/30 14:14:13;;;;;;;;;;;;;;;;;;10420641;28;20406;-65
2022/06/30 14:19:17;;;;;;;;;;;;;;;;;;10420087;28;20384;-65
2022/06/30 14:24:20;;;;;;;;;;;;;;;;;;10420883;28;19925;-65
2022/06/30 14:29:22;;;;;;;;;;;;;;;;;;10420556;28;20000;-65
2022/06/30 14:34:24;;;;;;;;;;;;;;;;;;10419933;28;20296;-65
2022/06/30 14:39:27;;;;;;;;;;;;;;;;;;10419595;28;19925;-65
2022/06/30 14:44:29;;;;;;;;;;;;;;;;;;10402717;28;19925;-65
2022/06/30 14:49:31;;;;;;;;;;;;;;;;;;10419335;28;19925;-65
2022/06/30 14:54:34;;;;;;;;;;;;;;;;;;10419707;28;20019;-65
2022/06/30 14:59:36;;;;;;;;;;;;;;;;;;10418009;28;19931;-65
2022/06/30 15:04:38;;;;;;;;;;;;;;;;;;10418827;28;19932;-65
2022/06/30 15:09:40;;;;;;;;;;;;;;;;;;10418840;28;19932;-65
2022/06/30 15:14:43;;;;;;;;;;;;;;;;;;10414121;28;19992;-65
2022/06/30 15:19:45;;;;;;;;;;;;;;;;;;10399994;28;19925;-65
2022/06/30 15:24:47;;;;;;;;;;;;;;;;;;10418221;28;19929;-65
2022/06/30 15:29:49;;;;;;;;;;;;;;;;;;10417674;28;19925;-65
2022/06/30 15:34:51;;;;;;;;;;;;;;;;;;10412756;28;20288;-65
2022/06/30 15:40:04;;;;;;;;;;;;;;;;;;10417761;28;19940;-66
2022/06/30 15:45:06;;;;;;;;;;;;;;;;;;10417703;28;19925;-66
2022/06/30 15:50:10;;;;;;;;;;;;;;;;;;10417067;28;19925;-66
2022/06/30 15:55:12;;;;;;;;;;;;;;;;;;10417867;28;19932;-66
2022/06/30 16:00:15;;;;;;;;;;;;;;;;;;10416024;28;19948;-66
2022/06/30 16:05:17;;;;;;;;;;;;;;;;;;10416374;28;19924;-66
2022/06/30 16:10:19;;;;;;;;;;;;;;;;;;10416192;28;19925;-66
2022/06/30 16:15:21;;;;;;;;;;;;;;;;;;10398638;28;19925;-66
2022/06/30 16:20:23;;;;;;;;;;;;;;;;;;10397916;28;19929;-66
2022/06/30 16:25:27;;;;;;;;;;;;;;;;;;10415762;28;19925;-66
2022/06/30 16:30:29;;;;;;;;;;;;;;;;;;10415405;28;19925;-65
2022/06/30 16:35:32;;;;;;;;;;;;;;;;;;10415152;28;19931;-66
2022/06/30 16:40:35;;;;;;;;;;;;;;;;;;10415001;28;20396;-65
2022/06/30 16:45:38;;;;;;;;;;;;;;;;;;10415941;28;19980;-66
2022/06/30 16:50:40;;;;;;;;;;;;;;;;;;10415866;28;19925;-66
2022/06/30 16:55:42;;;;;;;;;;;;;;;;;;10414336;28;20395;-66
2022/06/30 17:00:46;;;;;;;;;;;;;;;;;;10415187;28;20295;-67
2022/06/30 17:05:48;;;;;;;;;;;;;;;;;;10414796;28;19925;-64
2022/06/30 17:10:51;;;;;;;;;;;;;;;;;;10414922;28;19925;-63
2022/06/30 17:15:53;;;;;;;;;;;;;;;;;;10415416;28;19932;-65
2022/06/30 17:20:55;;;;;;;;;;;;;;;;;;10415033;28;19932;-65
2022/06/30 17:25:59;;;;;;;;;;;;;;;;;;10414586;28;20309;-65
2022/06/30 17:31:02;;;;;;;;;;;;;;;;;;10415044;28;19925;-65
2022/06/30 17:36:05;;;;;;;;;;;;;;;;;;10412919;28;19976;-64
2022/06/30 17:41:08;;;;;;;;;;;;;;;;;;10416350;28;19926;-64
2022/06/30 17:46:11;;;;;;;;;;;;;;;;;;10422470;28;19947;-65
2022/06/30 17:51:14;;;;;;;;;;;;;;;;;;10422241;28;19975;-67
2022/06/30 17:56:18;;;;;;;;;;;;;;;;;;10422667;28;19931;-67
2022/06/30 18:01:20;;;;;;;;;;;;;;;;;;10421107;28;19926;-65
2022/06/30 18:11:43;;;;;;;;;;;;;;;;;;10420828;28;20265;-68
2022/06/30 18:16:46;;;;;;;;;;;;;;;;;;10421266;28;19925;-69
2022/06/30 18:21:48;;;;;;;;;;;;;;;;;;10420942;28;19983;-65
2022/06/30 18:26:50;;;;;;;;;;;;;;;;;;10420859;28;19929;-64
2022/06/30 18:31:52;;;;;;;;;;;;;;;;;;10420243;28;19925;-65
2022/06/30 18:36:54;;;;;;;;;;;;;;;;;;10419570;28;19933;-64
2022/06/30 18:41:57;;;;;;;;;;;;;;;;;;10420251;28;19932;-63
2022/06/30 18:47:01;;;;;;;;;;;;;;;;;;10420099;28;19932;-65
2022/06/30 18:52:08;;;;;;;;;;;;;;;;;;10419798;28;19925;-64
2022/06/30 18:57:10;;;;;;;;;;;;;;;;;;10419481;28;19926;-64
2022/06/30 19:02:12;;;;;;;;;;;;;;;;;;10419493;28;19925;-64
2022/06/30 19:07:15;;;;;;;;;;;;;;;;;;10418671;28;19947;-65
2022/06/30 19:12:17;;;;;;;;;;;;;;;;;;10402033;28;19925;-65
2022/06/30 19:17:19;;;;;;;;;;;;;;;;;;10418907;28;19932;-65
2022/06/30 19:22:23;;;;;;;;;;;;;;;;;;10418002;28;20315;-67
2022/06/30 19:27:45;;;;;;;;;;;;;;;;;;10417762;28;20265;-64
2022/06/30 19:32:47;;;;;;;;;;;;;;;;;;10418221;28;19925;-65
2022/06/30 19:37:49;;;;;;;;;;;;;;;;;;10418147;28;19925;-64
2022/06/30 19:42:51;;;;;;;;;;;;;;;;;;10417806;28;19932;-64
2022/06/30 19:47:54;;;;;;;;;;;;;;;;;;10417707;28;19929;-64
2022/06/30 19:52:56;;;;;;;;;;;;;;;;;;10417540;28;19975;-64
2022/06/30 19:58:00;;;;;;;;;;;;;;;;;;10416368;28;20232;-64
2022/06/30 20:13:51;;;;;;;;;;;;;;;;;;10416776;28;19932;-64
2022/06/30 20:18:53;;;;;;;;;;;;;;;;;;10416569;28;19925;-64
2022/06/30 20:23:55;;;;;;;;;;;;;;;;;;10415899;28;20376;-64
2022/06/30 20:28:57;;;;;;;;;;;;;;;;;;10415722;28;19925;-64
2022/06/30 20:34:00;;;;;;;;;;;;;;;;;;10415604;28;19931;-63
2022/06/30 20:39:02;;;;;;;;;;;;;;;;;;10398581;28;19925;-63
2022/06/30 20:44:05;;;;;;;;;;;;;;;;;;10415399;28;19933;-63
2022/06/30 20:54:28;;;;;;;;;;;;;;;;;;10415043;28;19929;-63
2022/06/30 20:59:30;;;;;;;;;;;;;;;;;;10413410;28;20297;-63
2022/06/30 21:04:32;;;;;;;;;;;;;;;;;;10415428;28;19925;-63
2022/06/30 21:09:35;;;;;;;;;;;;;;;;;;10414595;28;19929;-63
2022/06/30 21:14:37;;;;;;;;;;;;;;;;;;10416674;28;19932;-63
2022/06/30 21:19:39;;;;;;;;;;;;;;;;;;10422774;28;19968;-64
2022/06/30 21:24:41;;;;;;;;;;;;;;;;;;10423113;28;19998;-64
2022/06/30 21:29:44;;;;;;;;;;;;;;;;;;10422902;28;20012;-64
2022/06/30 21:34:46;;;;;;;;;;;;;;;;;;10423019;28;19976;-64
2022/06/30 21:39:48;;;;;;;;;;;;;;;;;;10422573;28;19925;-64
2022/06/30 21:44:50;;;;;;;;;;;;;;;;;;10422151;28;19967;-64
2022/06/30 21:49:52;;;;;;;;;;;;;;;;;;10421727;28;19925;-64
2022/06/30 21:54:54;;;;;;;;;;;;;;;;;;10421857;28;19972;-64
2022/06/30 21:59:56;;;;;;;;;;;;;;;;;;10421132;28;19925;-64
2022/06/30 22:04:59;;;;;;;;;;;;;;;;;;10422270;28;20015;-64
2022/06/30 22:10:01;;;;;;;;;;;;;;;;;;10420912;28;20270;-64
2022/06/30 22:15:03;;;;;;;;;;;;;;;;;;10421154;28;20016;-63
2022/06/30 22:20:05;;;;;;;;;;;;;;;;;;10420485;28;19995;-64
2022/06/30 22:25:07;;;;;;;;;;;;;;;;;;10419852;28;19967;-64
2022/06/30 22:30:10;;;;;;;;;;;;;;;;;;10420581;28;19968;-64
2022/06/30 22:35:12;;;;;;;;;;;;;;;;;;10419942;28;19933;-64
2022/06/30 22:40:14;;;;;;;;;;;;;;;;;;10420370;28;19976;-64
2022/06/30 22:45:16;;;;;;;;;;;;;;;;;;10420509;28;20024;-64
2022/06/30 22:50:18;;;;;;;;;;;;;;;;;;10419354;28;20381;-64
2022/06/30 22:55:22;;;;;;;;;;;;;;;;;;10418916;28;20087;-64
2022/06/30 23:00:24;;;;;;;;;;;;;;;;;;10419359;28;20017;-64
2022/06/30 23:05:26;;;;;;;;;;;;;;;;;;10419431;28;19961;-63
2022/06/30 23:10:28;;;;;;;;;;;;;;;;;;10400974;28;20028;-64
2022/06/30 23:15:31;;;;;;;;;;;;;;;;;;10418561;28;19956;-64
2022/06/30 23:20:33;;;;;;;;;;;;;;;;;;10418820;28;19932;-64
2022/06/30 23:25:35;;;;;;;;;;;;;;;;;;10418307;28;19929;-64
2022/06/30 23:30:37;;;;;;;;;;;;;;;;;;10417831;28;19947;-64
2022/06/30 23:35:39;;;;;;;;;;;;;;;;;;10417861;28;19925;-64
2022/06/30 23:40:41;;;;;;;;;;;;;;;;;;10416508;28;20291;-64
2022/06/30 23:45:43;;;;;;;;;;;;;;;;;;10416971;28;20032;-64
2022/06/30 23:50:45;;;;;;;;;;;;;;;;;;10399329;28;20372;-64
2022/06/30 23:55:47;;;;;;;;;;;;;;;;;;10417588;28;19979;-64
